Time;durP1;ratioP1;P1;durP2;ratioP2;P2;SDS_P1;SDS_P2;PMS_P1;PMS_P2;Temp;Humidity;BMP_temperature;BMP_pressure;BME280_temperature;BME280_humidity;BME280_pressure;Samples;Min_cycle;Max_cycle;Signal;HPM_P1;HPM_P2
2022/08/01 00:01:09;;;;;;;7.30;3.77;;;;;;;23.64;51.25;100500.60;1647740;86;21137;-76
2022/08/01 00:03:35;;;;;;;14.30;3.85;;;;;;;23.64;52.29;100499.23;1633694;86;20990;-76
2022/08/01 00:06:01;;;;;;;13.08;3.90;;;;;;;23.64;52.87;100500.60;1638689;86;21014;-76
2022/08/01 00:08:27;;;;;;;12.65;3.80;;;;;;;23.63;52.53;100497.64;1622846;86;21039;-76
2022/08/01 00:10:53;;;;;;;10.38;3.62;;;;;;;23.64;52.71;100488.22;1644718;86;20911;-76
2022/08/01 00:13:19;;;;;;;15.00;4.15;;;;;;;23.61;51.52;100493.84;1633053;87;21607;-76
2022/08/01 00:15:45;;;;;;;13.93;3.72;;;;;;;23.59;50.98;100485.16;1633982;87;21040;-76
2022/08/01 00:18:11;;;;;;;10.55;4.03;;;;;;;23.57;49.80;100491.00;1629409;87;21097;-76
2022/08/01 00:20:37;;;;;;;9.43;3.72;;;;;;;23.56;50.15;100490.79;1616810;88;21672;-76
2022/08/01 00:23:04;;;;;;;13.32;4.35;;;;;;;23.57;50.17;100500.63;1616517;88;21042;-76
2022/08/01 00:25:31;;;;;;;10.85;3.95;;;;;;;23.59;50.48;100505.80;1657860;85;22082;-76
2022/08/01 00:27:57;;;;;;;11.75;4.20;;;;;;;23.57;52.33;100515.77;1661542;85;21077;-76
2022/08/01 00:30:23;;;;;;;13.98;4.65;;;;;;;23.50;53.62;100515.57;1660735;86;20919;-76
2022/08/01 00:32:49;;;;;;;10.08;4.08;;;;;;;23.48;53.35;100528.06;1654897;86;21007;-76
2022/08/01 00:35:16;;;;;;;13.38;4.47;;;;;;;23.45;52.83;100521.31;1654874;86;21133;-77
2022/08/01 00:37:43;;;;;;;12.05;4.28;;;;;;;23.43;52.41;100516.72;1654540;86;21166;-76
2022/08/01 00:40:10;;;;;;;9.38;4.20;;;;;;;23.44;52.40;100522.47;1654601;86;21464;-76
2022/08/01 00:42:36;;;;;;;15.45;4.60;;;;;;;23.44;52.29;100517.52;1654888;86;20974;-76
2022/08/01 00:45:02;;;;;;;10.90;4.22;;;;;;;23.47;52.49;100508.56;1657655;85;21043;-76
2022/08/01 00:47:28;;;;;;;10.05;4.47;;;;;;;23.45;51.98;100494.38;1665263;86;21558;-76
2022/08/01 00:49:54;;;;;;;14.55;4.37;;;;;;;23.44;51.67;100503.77;1658698;86;21087;-77
2022/08/01 00:52:20;;;;;;;10.05;4.05;;;;;;;23.42;51.54;100494.50;1654706;86;20891;-76
2022/08/01 00:54:46;;;;;;;8.55;4.17;;;;;;;23.42;51.43;100494.50;1655013;86;21049;-76
2022/08/01 00:57:13;;;;;;;17.90;4.50;;;;;;;23.40;51.14;100491.30;1654858;86;21070;-76
2022/08/01 00:59:40;;;;;;;9.68;4.60;;;;;;;23.36;50.85;100489.03;1654864;86;21031;-77
2022/08/01 01:02:07;;;;;;;18.57;5.12;;;;;;;23.34;50.56;100487.19;1654820;86;21097;-76
2022/08/01 01:04:33;;;;;;;20.97;6.05;;;;;;;23.31;50.58;100482.39;1658539;85;21026;-77
2022/08/01 01:07:23;;;;;;;18.07;5.78;;;;;;;23.30;50.51;100482.97;1657952;85;21160;-77
2022/08/01 01:10:22;;;;;;;20.23;5.28;;;;;;;23.20;50.65;100470.27;1658834;86;21067;-76
2022/08/01 01:13:08;;;;;;;15.40;5.17;;;;;;;23.26;50.87;100469.67;1654798;86;21166;-77
2022/08/01 01:15:56;;;;;;;13.75;5.40;;;;;;;23.20;51.41;100472.44;1628603;88;21102;-77
2022/08/01 01:18:54;;;;;;;18.73;5.55;;;;;;;23.21;51.66;100475.44;1628825;88;21079;-76
2022/08/01 01:21:28;;;;;;;17.70;5.12;;;;;;;23.18;52.10;100480.81;1631246;86;21465;-77
2022/08/01 01:24:23;;;;;;;16.40;5.80;;;;;;;23.16;52.21;100485.30;1630839;86;21049;-76
2022/08/01 01:27:11;;;;;;;16.95;5.70;;;;;;;23.16;52.29;100479.00;1579669;90;20999;-76
2022/08/01 01:29:56;;;;;;;17.67;5.95;;;;;;;23.08;52.90;100473.27;1561874;90;21350;-76
2022/08/01 01:32:33;;;;;;;15.53;5.53;;;;;;;23.00;52.93;100478.91;1554603;90;21096;-77
2022/08/01 01:35:04;;;;;;;15.38;6.15;;;;;;;22.93;53.37;100473.97;1552245;91;21171;-76
2022/08/01 01:37:33;;;;;;;16.75;5.50;;;;;;;22.89;53.93;100477.98;1527820;93;21520;-76
2022/08/01 01:40:01;;;;;;;16.67;6.00;;;;;;;22.84;53.60;100467.23;1527700;93;21599;-76
2022/08/01 01:42:28;;;;;;;14.65;5.72;;;;;;;22.81;54.16;100469.30;1527655;93;21147;-77
2022/08/01 01:44:55;;;;;;;13.43;5.67;;;;;;;22.77;54.60;100468.97;1527861;93;21535;-76
2022/08/01 01:47:23;;;;;;;16.20;6.25;;;;;;;22.73;54.95;100464.72;1527866;93;20992;-76
2022/08/01 01:49:51;;;;;;;17.05;5.70;;;;;;;22.70;55.10;100457.74;1528127;93;21048;-77
2022/08/01 01:52:19;;;;;;;21.40;6.50;;;;;;;22.66;55.79;100461.18;1528029;93;21097;-76
2022/08/01 01:54:49;;;;;;;17.37;6.30;;;;;;;22.63;56.16;100470.11;1527460;93;21114;-76
2022/08/01 01:57:17;;;;;;;19.12;5.97;;;;;;;22.61;56.33;100465.53;1514335;94;21081;-76
2022/08/01 01:59:46;;;;;;;15.38;5.20;;;;;;;22.59;56.83;100472.50;1514543;94;21085;-76
2022/08/01 02:02:14;;;;;;;15.70;5.20;;;;;;;22.58;57.25;100478.58;1514597;94;21188;-76
2022/08/01 02:04:46;;;;;;;16.93;5.87;;;;;;;22.57;57.10;100479.73;1514355;94;21078;-76
2022/08/01 02:07:17;;;;;;;16.37;5.60;;;;;;;22.55;57.20;100475.14;1514217;93;21171;-76
2022/08/01 02:09:46;;;;;;;17.35;6.53;;;;;;;22.54;57.47;100477.67;1511992;94;21090;-76
2022/08/01 02:12:13;;;;;;;20.88;7.15;;;;;;;22.50;57.57;100476.77;1504618;94;21679;-76
2022/08/01 02:14:41;;;;;;;19.07;7.72;;;;;;;22.51;57.86;100483.06;1560216;90;21105;-76
2022/08/01 02:17:11;;;;;;;22.05;7.47;;;;;;;22.51;57.88;100491.30;1581547;90;21148;-76
2022/08/01 02:19:38;;;;;;;18.62;7.42;;;;;;;22.50;58.10;100485.02;1581352;90;21167;-76
2022/08/01 02:22:11;;;;;;;23.12;8.20;;;;;;;22.47;58.08;100488.41;1581551;89;21120;-77
2022/08/01 02:24:42;;;;;;;24.75;7.92;;;;;;;22.45;58.63;100489.34;1581272;90;21157;-76
2022/08/01 02:27:13;;;;;;;19.37;6.60;;;;;;;22.45;58.87;100494.27;1581627;90;21045;-76
2022/08/01 02:29:47;;;;;;;18.65;7.45;;;;;;;22.41;59.10;100485.66;1581532;90;21140;-76
2022/08/01 02:32:19;;;;;;;25.65;7.47;;;;;;;22.38;59.32;100495.41;1581688;89;21933;-76
2022/08/01 02:34:49;;;;;;;23.95;7.05;;;;;;;22.36;59.82;100496.89;1581483;89;21104;-77
2022/08/01 02:37:17;;;;;;;17.02;6.70;;;;;;;22.36;60.88;100496.89;1581095;90;21120;-76
2022/08/01 02:39:48;;;;;;;21.37;6.42;;;;;;;22.37;60.65;100489.67;1582729;89;21117;-77
2022/08/01 02:42:15;;;;;;;25.62;8.85;;;;;;;22.36;64.79;100487.28;1591086;89;21048;-76
2022/08/01 02:44:44;;;;;;;26.60;9.35;;;;;;;22.28;65.22;100483.49;1611431;89;21172;-77
2022/08/01 02:47:10;;;;;;;27.75;8.15;;;;;;;22.24;63.78;100478.47;1611790;89;21098;-77
2022/08/01 02:49:46;;;;;;;20.80;7.95;;;;;;;22.22;64.00;100493.89;1611495;87;21127;-77
2022/08/01 02:52:17;;;;;;;26.77;8.60;;;;;;;22.23;63.24;100500.17;1611502;89;21038;-76
2022/08/01 02:54:51;;;;;;;20.57;7.70;;;;;;;22.23;63.19;100505.67;1588568;90;21539;-77
2022/08/01 02:57:19;;;;;;;15.58;5.80;;;;;;;22.25;63.11;100510.25;1588503;90;21175;-76
2022/08/01 02:59:47;;;;;;;18.98;5.75;;;;;;;22.27;63.14;100516.22;1589037;90;21171;-76
2022/08/01 03:02:15;;;;;;;15.80;5.60;;;;;;;22.31;65.27;100512.21;1588912;90;21196;-77
2022/08/01 03:04:46;;;;;;;12.37;4.67;;;;;;;22.31;67.99;100517.12;1589032;89;21056;-76
2022/08/01 03:07:17;;;;;;;18.30;4.70;;;;;;;22.32;67.26;100522.04;1588981;90;21063;-76
2022/08/01 03:09:46;;;;;;;15.25;4.58;;;;;;;22.29;66.47;100526.27;1588249;90;22359;-76
2022/08/01 03:12:23;;;;;;;49.42;5.95;;;;;;;22.29;66.23;100530.39;1588869;88;21075;-76
2022/08/01 03:14:52;;;;;;;18.07;4.75;;;;;;;22.30;67.06;100522.98;1568364;90;21089;-76
2022/08/01 03:17:28;;;;;;;12.00;4.25;;;;;;;22.29;67.94;100531.75;1562986;91;21133;-76
2022/08/01 03:19:56;;;;;;;13.58;3.45;;;;;;;22.28;68.88;100539.77;1525888;94;21196;-76
2022/08/01 03:22:24;;;;;;;11.18;3.87;;;;;;;22.25;70.66;100541.83;1502658;94;21229;-76
2022/08/01 03:24:54;;;;;;;12.00;4.17;;;;;;;22.21;72.04;100542.29;1501189;95;21023;-77
2022/08/01 03:27:25;;;;;;;9.80;3.62;;;;;;;22.16;74.01;100543.27;1501295;94;21514;-76
2022/08/01 03:29:55;;;;;;;20.62;6.22;;;;;;;22.14;75.09;100552.40;1501202;95;21054;-76
2022/08/01 03:32:23;;;;;;;65.62;21.85;;;;;;;22.10;76.69;100553.43;1501265;95;21129;-77
2022/08/01 03:34:49;;;;;;;90.70;30.40;;;;;;;22.05;77.74;100548.15;1501116;95;21160;-76
2022/08/01 03:37:29;;;;;;;80.05;25.72;;;;;;;22.02;79.31;100553.73;1512834;92;21142;-77
2022/08/01 03:40:04;;;;;;;45.03;14.65;;;;;;;21.97;81.99;100549.83;1529894;92;21208;-77
2022/08/01 03:42:38;;;;;;;25.82;7.97;;;;;;;21.95;84.50;100568.02;1532380;92;21157;-77
2022/08/01 03:45:12;;;;;;;20.25;7.12;;;;;;;21.94;86.30;100560.11;1503777;94;21162;-77
2022/08/01 03:47:43;;;;;;;88.70;13.65;;;;;;;21.89;88.32;100567.20;1504991;94;21184;-78
2022/08/01 03:50:12;;;;;;;42.88;11.95;;;;;;;21.83;90.68;100565.80;1496931;91;20994;-77
2022/08/01 03:52:42;;;;;;;30.12;9.63;;;;;;;21.78;92.48;100556.63;1609502;88;21104;-77
2022/08/01 03:55:10;;;;;;;26.65;8.75;;;;;;;21.76;94.35;100559.47;1611528;88;21142;-77
2022/08/01 03:57:38;;;;;;;19.42;6.60;;;;;;;21.76;95.99;100559.47;1611909;88;37423;-77
2022/08/01 04:00:08;;;;;;;23.80;8.43;;;;;;;21.78;96.13;100557.99;1616546;88;21149;-76
2022/08/01 04:02:35;;;;;;;23.55;7.80;;;;;;;21.83;98.17;100554.25;1616579;88;21532;-77
2022/08/01 04:05:03;;;;;;;25.02;8.23;;;;;;;21.90;99.22;100557.81;1595344;88;21091;-76
2022/08/01 04:07:35;;;;;;;30.68;8.00;;;;;;;21.92;98.30;100548.11;1616830;88;21138;-77
2022/08/01 04:10:01;;;;;;;14.33;5.58;;;;;;;21.93;98.47;100544.22;1616699;87;21079;-77
2022/08/01 04:12:27;;;;;;;13.10;4.25;;;;;;;21.98;95.00;100545.95;1616649;88;21129;-76
2022/08/01 04:14:53;;;;;;;21.37;4.30;;;;;;;21.99;94.26;100542.06;1619834;88;20990;-77
2022/08/01 04:17:19;;;;;;;9.70;4.00;;;;;;;21.99;93.43;100538.75;1621169;88;20988;-77
2022/08/01 04:19:45;;;;;;;13.28;3.25;;;;;;;22.02;93.02;100539.22;1621526;88;21034;-76
2022/08/01 04:22:14;;;;;;;10.95;3.67;;;;;;;22.06;93.39;100536.84;1621253;88;21135;-77
2022/08/01 04:24:44;;;;;;;13.28;3.92;;;;;;;22.03;93.44;100525.17;1621207;88;21561;-77
2022/08/01 04:27:15;;;;;;;12.85;4.15;;;;;;;21.98;94.56;100534.41;1621368;88;21039;-77
2022/08/01 04:29:42;;;;;;;15.78;3.77;;;;;;;21.97;96.24;100521.02;1621409;88;21007;-77
2022/08/01 04:32:12;;;;;;;11.12;3.98;;;;;;;21.94;97.03;100525.80;1648013;86;21052;-76
2022/08/01 04:34:45;;;;;;;10.65;3.95;;;;;;;21.90;97.70;100510.59;1621406;88;21059;-76
2022/08/01 04:37:16;;;;;;;12.50;3.67;;;;;;;21.86;98.31;100520.66;1620969;88;22058;-77
2022/08/01 04:39:44;;;;;;;11.00;4.30;;;;;;;21.87;98.81;100526.94;1621196;88;21055;-76
2022/08/01 04:42:12;;;;;;;12.40;3.92;;;;;;;21.87;99.44;100521.45;1643903;86;20984;-77
2022/08/01 04:44:38;;;;;;;10.93;4.08;;;;;;;21.81;100.00;100521.43;1653567;86;21027;-77
2022/08/01 04:47:07;;;;;;;13.03;4.05;;;;;;;21.74;100.00;100520.03;1653616;86;20983;-77
2022/08/01 04:49:35;;;;;;;13.50;4.67;;;;;;;21.72;100.00;100515.45;1653145;86;21498;-76
2022/08/01 04:52:01;;;;;;;11.38;3.67;;;;;;;21.70;100.00;100516.34;1653343;86;21148;-76
2022/08/01 04:54:29;;;;;;;21.77;5.25;;;;;;;21.67;100.00;100522.51;1653564;86;21055;-76
2022/08/01 04:56:59;;;;;;;16.45;4.35;;;;;;;21.65;100.00;100521.23;1653422;86;20911;-77
2022/08/01 04:59:39;;;;;;;11.12;4.40;;;;;;;21.58;100.00;100520.41;1653147;86;21118;-77
2022/08/01 05:02:09;;;;;;;21.00;4.50;;;;;;;21.60;100.00;100529.11;1653152;86;21055;-76
2022/08/01 05:04:36;;;;;;;18.20;4.58;;;;;;;21.59;100.00;100529.44;1653392;86;21063;-76
2022/08/01 05:07:03;;;;;;;9.70;4.25;;;;;;;21.53;100.00;100531.58;1653438;86;21078;-76
2022/08/01 05:09:30;;;;;;;8.48;3.90;;;;;;;21.45;100.00;100526.99;1653914;86;21051;-76
2022/08/01 05:11:58;;;;;;;11.30;4.33;;;;;;;21.41;100.00;100524.66;1653215;86;21110;-77
2022/08/01 05:14:31;;;;;;;14.25;4.33;;;;;;;21.40;100.00;100527.98;1649930;86;21149;-76
2022/08/01 05:16:56;;;;;;;11.85;3.95;;;;;;;21.41;100.00;100532.31;1644329;87;21040;-76
2022/08/01 05:19:23;;;;;;;11.57;4.50;;;;;;;21.38;100.00;100530.24;1644505;87;20885;-76
2022/08/01 05:21:49;;;;;;;12.25;4.10;;;;;;;21.37;100.00;100530.59;1644599;86;21095;-76
2022/08/01 05:24:15;;;;;;;8.78;4.25;;;;;;;21.36;100.00;100535.83;1644477;87;21784;-76
2022/08/01 05:26:41;;;;;;;20.95;4.78;;;;;;;21.30;100.00;100536.02;1644419;87;22000;-76
2022/08/01 05:29:07;;;;;;;15.10;4.95;;;;;;;21.26;100.00;100535.63;1644285;87;20869;-76
2022/08/01 05:31:34;;;;;;;16.50;4.65;;;;;;;21.27;100.00;100534.52;1644498;87;21011;-76
2022/08/01 05:34:02;;;;;;;12.45;4.42;;;;;;;21.31;100.00;100531.33;1644132;87;21127;-76
2022/08/01 05:36:29;;;;;;;15.72;4.72;;;;;;;21.29;100.00;100528.11;1632435;87;21081;-76
2022/08/01 05:38:55;;;;;;;12.98;4.37;;;;;;;21.26;100.00;100527.41;1632744;87;21554;-76
2022/08/01 05:41:21;;;;;;;10.25;4.10;;;;;;;21.23;100.00;100530.81;1610843;87;20983;-76
2022/08/01 05:43:47;;;;;;;13.98;4.65;;;;;;;21.22;100.00;100539.61;1632590;87;21643;-76
2022/08/01 05:46:14;;;;;;;12.37;4.45;;;;;;;21.20;100.00;100547.36;1632721;87;21133;-76
2022/08/01 05:48:40;;;;;;;14.15;4.97;;;;;;;21.13;100.00;100549.83;1632749;87;21036;-77
2022/08/01 05:51:06;;;;;;;17.20;5.28;;;;;;;21.03;100.00;100563.90;1632873;87;21159;-77
2022/08/01 05:53:34;;;;;;;13.35;5.22;;;;;;;20.97;100.00;100586.60;1610695;87;21719;-77
2022/08/01 05:56:01;;;;;;;15.95;4.97;;;;;;;20.90;100.00;100578.66;1632556;87;21455;-77
2022/08/01 05:58:28;;;;;;;14.83;4.95;;;;;;;20.79;100.00;100578.20;1632282;87;21583;-78
2022/08/01 06:00:54;;;;;;;11.63;5.00;;;;;;;20.68;100.00;100579.16;1632785;87;21085;-78
2022/08/01 06:03:20;;;;;;;12.15;4.80;;;;;;;20.67;100.00;100569.88;1632722;87;21272;-78
2022/08/01 06:05:46;;;;;;;15.72;5.33;;;;;;;20.59;100.00;100561.39;1632635;87;21032;-78
2022/08/01 06:08:12;;;;;;;8.68;5.05;;;;;;;20.53;100.00;100567.34;1632751;87;20996;-79
2022/08/01 06:13:06;;;;;;;15.55;5.47;;;;;;;20.46;100.00;100556.88;1560181;90;21118;-79
2022/08/01 06:15:32;;;;;;;13.80;5.40;;;;;;;20.42;100.00;100554.00;1561829;90;21996;-79
2022/08/01 06:18:11;;;;;;;10.65;5.12;;;;;;;20.41;100.00;100550.20;1562680;90;21125;-91
2022/08/01 06:20:30;;;;;;;13.70;5.75;;;;;;;20.36;100.00;100559.42;1558936;90;21725;-86
2022/08/01 06:22:56;;;;;;;15.45;5.95;;;;;;;20.38;100.00;100550.86;1533841;92;21142;-87
2022/08/01 06:25:23;;;;;;;17.30;5.83;;;;;;;20.38;100.00;100539.91;1533841;92;21126;-86
2022/08/01 06:27:51;;;;;;;14.93;5.97;;;;;;;20.39;100.00;100542.34;1533737;92;21212;-86
2022/08/01 06:30:17;;;;;;;15.58;5.60;;;;;;;20.37;100.00;100542.42;1489734;94;21164;-85
2022/08/01 06:32:48;;;;;;;20.35;5.35;;;;;;;20.39;100.00;100540.97;1482941;94;21349;-86
2022/08/01 06:35:16;;;;;;;12.00;5.47;;;;;;;20.42;100.00;100533.47;1459953;96;21496;-86
2022/08/01 06:37:46;;;;;;;12.43;5.53;;;;;;;20.46;100.00;100540.45;1459566;96;22731;-87
2022/08/01 06:40:13;;;;;;;14.80;5.80;;;;;;;20.48;100.00;100542.30;1459318;96;21220;-87
2022/08/01 06:42:40;;;;;;;10.88;5.53;;;;;;;20.42;100.00;100544.42;1459757;96;21121;-86
2022/08/01 06:45:11;;;;;;;13.32;5.72;;;;;;;20.38;100.00;100535.80;1458646;97;21155;-86
2022/08/01 06:47:38;;;;;;;11.83;5.83;;;;;;;20.40;100.00;100532.98;1458778;97;21125;-85
2022/08/01 06:50:07;;;;;;;11.57;5.25;;;;;;;20.41;100.00;100544.19;1458162;96;21231;-85
2022/08/01 06:52:33;;;;;;;14.38;6.10;;;;;;;20.40;100.00;100542.56;1458805;97;21179;-85
2022/08/01 06:55:00;;;;;;;10.13;5.22;;;;;;;20.39;100.00;100544.27;1457697;96;21151;-87
2022/08/01 06:57:26;;;;;;;11.83;5.78;;;;;;;20.40;100.00;100539.83;1441142;97;21740;-87
2022/08/01 06:59:54;;;;;;;16.85;6.03;;;;;;;20.38;100.00;100544.84;1458233;96;21142;-86
2022/08/01 07:02:21;;;;;;;17.10;6.40;;;;;;;20.40;100.00;100542.56;1461984;96;21098;-87
2022/08/01 07:04:49;;;;;;;12.10;5.85;;;;;;;20.41;100.00;100540.09;1461533;96;21731;-85
2022/08/01 07:07:15;;;;;;;12.78;5.53;;;;;;;20.40;100.00;100524.77;1458391;98;21208;-85
2022/08/01 07:09:42;;;;;;;15.60;6.12;;;;;;;20.45;100.00;100528.48;1471479;96;21117;-86
2022/08/01 07:12:09;;;;;;;10.88;5.83;;;;;;;20.53;100.00;100529.84;1494267;96;21154;-87
2022/08/01 07:14:35;;;;;;;16.82;6.37;;;;;;;20.64;100.00;100524.78;1495445;95;21089;-87
2022/08/01 07:17:02;;;;;;;13.40;6.28;;;;;;;20.70;100.00;100519.93;1498071;95;21270;-86
2022/08/01 07:19:28;;;;;;;14.00;6.40;;;;;;;20.77;100.00;100514.19;1508466;93;21077;-86
2022/08/01 07:21:54;;;;;;;13.20;6.60;;;;;;;20.87;100.00;100519.84;1521719;94;21162;-86
2022/08/01 07:24:20;;;;;;;15.53;6.33;;;;;;;20.96;100.00;100526.64;1509573;94;21103;-87
2022/08/01 07:26:49;;;;;;;10.05;5.75;;;;;;;21.04;100.00;100529.33;1517323;92;21113;-86
2022/08/01 07:29:15;;;;;;;12.25;5.60;;;;;;;21.18;100.00;100542.80;1545661;91;21788;-85
2022/08/01 07:31:41;;;;;;;11.88;5.97;;;;;;;21.37;100.00;100553.33;1535553;93;21104;-85
2022/08/01 07:34:08;;;;;;;12.95;5.72;;;;;;;21.65;100.00;100577.46;1535494;93;21595;-85
2022/08/01 07:36:35;;;;;;;13.60;6.05;;;;;;;21.84;100.00;100579.17;1535502;92;21286;-86
2022/08/01 07:39:01;;;;;;;15.18;6.00;;;;;;;22.15;100.00;100574.61;1535402;93;21101;-88
2022/08/01 07:41:29;;;;;;;10.93;5.22;;;;;;;22.50;100.00;100568.78;1535316;93;21356;-88
2022/08/01 07:43:55;;;;;;;12.10;5.35;;;;;;;22.98;100.00;100558.18;1565700;90;21566;-89
2022/08/01 07:46:23;;;;;;;14.35;5.53;;;;;;;23.42;100.00;100549.52;1565518;91;21021;-89
2022/08/01 07:48:49;;;;;;;16.27;5.30;;;;;;;23.89;100.00;100545.37;1575778;90;21101;-88
2022/08/01 07:51:17;;;;;;;11.00;5.35;;;;;;;24.29;100.00;100543.08;1574419;90;21615;-89
2022/08/01 07:53:43;;;;;;;11.22;4.35;;;;;;;24.77;100.00;100547.48;1599868;89;21006;-90
2022/08/01 07:56:12;;;;;;;13.48;4.90;;;;;;;25.19;100.00;100541.95;1595881;89;21097;-87
2022/08/01 07:58:42;;;;;;;12.47;5.08;;;;;;;25.65;100.00;100523.62;1589771;89;21077;-84
2022/08/01 08:01:08;;;;;;;9.10;4.65;;;;;;;25.52;100.00;100524.33;1570979;91;21254;-87
2022/08/01 08:03:36;;;;;;;11.48;5.12;;;;;;;25.20;100.00;100521.48;1571042;91;21144;-86
2022/08/01 08:08:31;;;;;;;11.30;5.42;;;;;;;24.48;100.00;100531.61;1550581;92;21716;-86
2022/08/01 08:10:57;;;;;;;10.55;5.58;;;;;;;24.39;100.00;100524.66;1550628;92;21516;-85
2022/08/01 08:13:23;;;;;;;8.80;5.37;;;;;;;24.18;100.00;100535.94;1550818;92;21148;-85
2022/08/01 08:15:50;;;;;;;14.75;5.50;;;;;;;24.04;100.00;100548.73;1532432;91;21141;-86
2022/08/01 08:18:19;;;;;;;14.05;5.55;;;;;;;23.95;100.00;100551.64;1523962;94;21235;-85
2022/08/01 08:20:45;;;;;;;9.80;5.35;;;;;;;23.91;100.00;100553.48;1527335;93;21032;-85
2022/08/01 08:25:56;;;;;;;9.85;5.70;;;;;;;24.30;100.00;100550.20;1527658;93;21113;-86
2022/08/01 08:28:22;;;;;;;13.93;5.78;;;;;;;24.79;100.00;100549.28;1527340;93;20994;-84
2022/08/01 08:30:50;;;;;;;10.32;6.17;;;;;;;25.22;100.00;100545.37;1527508;93;22013;-84
2022/08/01 08:33:16;;;;;;;14.95;6.78;;;;;;;25.63;100.00;100532.05;1526990;94;21081;-84
2022/08/01 08:35:42;;;;;;;9.83;5.30;;;;;;;26.16;100.00;100524.80;1508305;94;21104;-85
2022/08/01 08:38:08;;;;;;;13.60;5.60;;;;;;;26.94;100.00;100514.82;1526708;93;21136;-85
2022/08/01 08:40:36;;;;;;;11.38;5.25;;;;;;;26.98;100.00;100501.86;1523122;93;21113;-85
2022/08/01 08:43:11;;;;;;;10.68;5.20;;;;;;;27.06;100.00;100495.26;1514135;94;22027;-85
2022/08/01 08:45:37;;;;;;;8.43;4.72;;;;;;;27.05;100.00;100499.17;1511123;94;21153;-86
2022/08/01 08:48:06;;;;;;;8.35;4.78;;;;;;;26.86;100.00;100473.05;1503781;95;21175;-86
2022/08/01 08:50:37;;;;;;;7.37;4.37;;;;;;;26.90;100.00;100471.91;1535022;89;21065;-85
2022/08/01 08:53:04;;;;;;;9.78;4.90;;;;;;;26.83;100.00;100489.80;1552058;91;20972;-86
2022/08/01 08:55:30;;;;;;;13.98;5.05;;;;;;;26.80;100.00;100491.13;1547404;91;21152;-88
2022/08/01 08:57:57;;;;;;;12.65;4.78;;;;;;;26.71;100.00;100486.66;1535121;91;21138;-88
2022/08/01 09:00:24;;;;;;;10.58;5.00;;;;;;;26.36;100.00;100470.87;1530610;93;21578;-86
2022/08/01 09:02:52;;;;;;;10.10;5.08;;;;;;;26.11;100.00;100461.56;1530738;92;21157;-85
2022/08/01 09:05:25;;;;;;;12.58;4.70;;;;;;;25.92;100.00;100479.00;1553127;90;21057;-85
2022/08/01 09:07:53;;;;;;;16.05;5.28;;;;;;;25.72;100.00;100465.78;1579922;89;21098;-84
2022/08/01 09:10:20;;;;;;;12.35;5.50;;;;;;;25.73;100.00;100453.56;1569891;91;21052;-86
2022/08/01 09:13:10;;;;;;;11.55;4.80;;;;;;;25.79;100.00;100454.06;1570332;91;21109;-86
2022/08/01 09:15:53;;;;;;;11.80;5.20;;;;;;;26.08;100.00;100447.11;1505961;94;21065;-85
2022/08/01 09:18:44;;;;;;;10.53;5.72;;;;;;;26.23;100.00;100427.42;1465135;97;21691;-84
2022/08/01 09:21:19;;;;;;;11.05;5.12;;;;;;;26.11;100.00;100438.09;1462470;96;21148;-86
2022/08/01 09:23:54;;;;;;;9.78;5.47;;;;;;;26.22;100.00;100436.30;1462834;98;21539;-86
2022/08/01 09:26:33;;;;;;;12.55;5.90;;;;;;;25.90;100.00;100421.95;1462684;98;21150;-86
2022/08/01 09:29:03;;;;;;;10.03;5.08;;;;;;;25.72;100.00;100416.09;1461834;96;21249;-87
2022/08/01 09:31:33;;;;;;;11.60;5.53;;;;;;;25.71;100.00;100417.85;1462955;98;21166;-86
2022/08/01 09:34:03;;;;;;;12.70;5.42;;;;;;;25.69;100.00;100414.06;1459043;98;21160;-87
2022/08/01 09:36:56;;;;;;;13.13;5.85;;;;;;;25.71;100.00;100402.09;1434078;100;21135;-86
2022/08/01 09:39:26;;;;;;;9.28;6.00;;;;;;;25.90;100.00;100406.77;1416102;101;22403;-86
2022/08/01 09:41:55;;;;;;;14.78;5.45;;;;;;;26.09;100.00;100397.63;1408738;100;21165;-86
2022/08/01 09:44:42;;;;;;;16.42;5.95;;;;;;;26.09;100.00;100413.37;1407406;101;21249;-86
2022/08/01 09:47:08;;;;;;;16.40;6.37;;;;;;;25.94;100.00;100409.03;1359907;105;21210;-87
2022/08/01 09:49:42;;;;;;;16.10;5.90;;;;;;;26.03;100.00;100403.22;1359194;105;21126;-87
2022/08/01 09:52:21;;;;;;;13.68;5.90;;;;;;;25.83;100.00;100400.55;1340904;107;21136;-84
2022/08/01 09:55:05;;;;;;;13.03;6.72;;;;;;;25.74;100.00;100405.48;1341348;107;21206;-86
2022/08/01 09:57:31;;;;;;;13.48;5.67;;;;;;;25.67;100.00;100392.92;1321186;108;21240;-86
2022/08/01 10:00:03;;;;;;;12.10;5.95;;;;;;;25.61;100.00;100399.33;1321319;108;21271;-88
2022/08/01 10:02:37;;;;;;;14.28;6.58;;;;;;;25.46;100.00;100393.34;1321578;108;21579;-85
2022/08/01 10:05:08;;;;;;;14.30;6.25;;;;;;;25.39;100.00;100390.45;1302582;109;21222;-87
2022/08/01 10:07:38;;;;;;;10.63;6.00;;;;;;;25.40;100.00;100411.94;1300859;109;21661;-88
2022/08/01 10:10:16;;;;;;;12.13;6.37;;;;;;;25.20;100.00;100405.05;1335287;107;21250;-87
2022/08/01 10:12:42;;;;;;;14.45;6.35;;;;;;;24.92;100.00;100410.17;1362468;103;22059;-86
2022/08/01 10:15:20;;;;;;;;;;;;;;;;;;;;;
2022/08/01 10:17:40;;;;;;;19.65;6.90;;;;;;;24.75;100.00;100427.13;1306805;108;21235;-85
2022/08/01 10:20:08;;;;;;;11.93;6.87;;;;;;;24.80;100.00;100427.44;1307630;108;21604;-85
2022/08/01 10:22:35;;;;;;;18.95;7.75;;;;;;;24.78;100.00;100423.64;1267894;111;21153;-85
2022/08/01 10:25:04;;;;;;;13.03;6.42;;;;;;;24.64;100.00;100431.01;1249821;111;21237;-86
2022/08/01 10:27:34;;;;;;;15.08;6.70;;;;;;;24.65;100.00;100436.77;1245427;113;21218;-86
2022/08/01 10:30:09;;;;;;;13.85;6.72;;;;;;;24.62;100.00;100440.79;1245304;113;21227;-87
2022/08/01 10:32:39;;;;;;;14.98;7.03;;;;;;;24.62;100.00;100460.91;1243970;113;21213;-87
2022/08/01 10:35:08;;;;;;;15.05;7.08;;;;;;;24.53;100.00;100455.34;1232533;113;21260;-87
2022/08/01 10:37:38;;;;;;;14.80;7.28;;;;;;;24.43;100.00;100465.75;1232930;111;21246;-88
2022/08/01 10:40:11;;;;;;;15.98;6.83;;;;;;;24.35;100.00;100457.06;1263796;112;21186;-86
2022/08/01 10:42:42;;;;;;;14.25;7.15;;;;;;;24.25;100.00;100465.30;1247286;113;21193;-87
2022/08/01 10:45:15;;;;;;;17.48;7.37;;;;;;;24.22;100.00;100459.12;1240662;114;21195;-86
2022/08/01 10:48:17;;;;;;;20.02;7.50;;;;;;;24.22;100.00;100458.33;1240606;114;21265;-87
2022/08/01 10:50:53;;;;;;;15.70;7.00;;;;;;;24.25;100.00;100458.98;1226715;115;21565;-88
2022/08/01 10:53:21;;;;;;;16.30;6.72;;;;;;;24.16;100.00;100453.66;1224975;115;21269;-86
2022/08/01 10:56:01;;;;;;;15.60;7.50;;;;;;;24.10;100.00;100455.66;1252748;110;21698;-87
2022/08/01 10:58:47;;;;;;;15.72;6.85;;;;;;;24.05;100.00;100459.47;1277764;110;21151;-88
2022/08/01 11:01:34;;;;;;;19.37;7.58;;;;;;;24.00;100.00;100459.72;1259750;112;21725;-86
2022/08/01 11:04:14;;;;;;;13.83;6.97;;;;;;;23.95;100.00;100463.55;1303483;108;21235;-85
2022/08/01 11:06:54;;;;;;;19.12;7.10;;;;;;;23.82;100.00;100463.39;1349892;105;21126;-86
2022/08/01 11:09:30;;;;;;;18.55;8.15;;;;;;;23.58;100.00;100474.70;1350871;106;21079;-90
2022/08/01 11:12:02;;;;;;;15.80;7.72;;;;;;;23.36;100.00;100476.65;1342153;106;21195;-86
2022/08/01 11:14:29;;;;;;;21.35;8.13;;;;;;;23.26;100.00;100483.42;1343574;106;21148;-89
2022/08/01 11:16:56;;;;;;;16.37;7.72;;;;;;;23.17;100.00;100486.09;1341627;105;21967;-90
2022/08/01 11:19:22;;;;;;;19.80;8.85;;;;;;;23.12;100.00;100492.07;1359308;104;21217;-90
2022/08/01 11:22:03;;;;;;;18.92;9.48;;;;;;;23.00;100.00;100499.52;1367382;104;21176;-85
2022/08/01 11:25:03;;;;;;;17.10;8.43;;;;;;;22.92;100.00;100512.23;1369653;104;21229;-87
2022/08/01 11:27:32;;;;;;;14.63;7.92;;;;;;;22.78;100.00;100514.52;1345665;104;21166;-86
2022/08/01 11:30:15;;;;;;;18.37;8.10;;;;;;;22.52;100.00;100522.52;1355875;105;21340;-85
2022/08/01 11:32:47;;;;;;;18.15;8.75;;;;;;;22.30;100.00;100521.60;1357037;105;21273;-85